createdAt,value
2023-03-10T00:02:20.144Z,6.97
2023-03-10T00:04:51.141Z,8.63
2023-03-10T00:07:19.332Z,8.10
2023-03-10T00:09:47.467Z,8.03
2023-03-10T00:12:15.521Z,8.47
2023-03-10T00:14:44.809Z,7.33
2023-03-10T00:17:12.780Z,7.57
2023-03-10T00:19:40.656Z,7.80
2023-03-10T00:22:08.547Z,7.27
2023-03-10T00:24:36.480Z,7.00
2023-03-10T00:27:04.386Z,8.40
2023-03-10T00:29:32.366Z,7.80
2023-03-10T00:32:01.648Z,7.30
2023-03-10T00:34:29.565Z,7.20
2023-03-10T00:36:57.507Z,7.50
2023-03-10T00:39:25.436Z,8.13
2023-03-10T00:41:53.334Z,7.70
2023-03-10T00:44:21.303Z,7.73
2023-03-10T00:46:49.422Z,6.67
2023-03-10T00:49:19.239Z,6.77
2023-03-10T00:51:47.177Z,7.20
2023-03-10T00:54:15.116Z,7.53
2023-03-10T00:56:43.055Z,6.67
2023-03-10T00:59:13.268Z,7.93
2023-03-10T01:01:42.463Z,7.93
2023-03-10T01:04:14.454Z,7.37
2023-03-10T01:06:47.684Z,6.73
2023-03-10T01:09:15.791Z,7.33
2023-03-10T01:11:43.868Z,7.47
2023-03-10T01:14:14.022Z,7.00
2023-03-10T01:16:41.962Z,7.63
2023-03-10T01:19:10.209Z,8.13
2023-03-10T01:21:39.940Z,6.23
2023-03-10T01:24:11.367Z,6.67
2023-03-10T01:26:39.260Z,7.70
2023-03-10T01:29:07.217Z,7.10
2023-03-10T01:31:35.214Z,7.43
2023-03-10T01:34:03.114Z,6.87
2023-03-10T01:36:31.269Z,7.07
2023-03-10T01:39:00.339Z,6.90
2023-03-10T01:41:29.610Z,6.20
2023-03-10T01:43:58.280Z,6.80
2023-03-10T01:46:48.376Z,7.07
2023-03-10T01:49:27.010Z,6.20
2023-03-10T01:51:59.488Z,7.13
2023-03-10T01:54:29.898Z,6.33
2023-03-10T01:56:59.481Z,6.97
2023-03-10T01:59:28.612Z,6.90
2023-03-10T02:01:56.851Z,7.17
2023-03-10T02:04:31.477Z,6.47
2023-03-10T02:07:00.307Z,6.77
2023-03-10T02:09:28.345Z,6.57
2023-03-10T02:11:59.297Z,6.57
2023-03-10T02:14:27.237Z,6.73
2023-03-10T02:16:55.158Z,6.80
2023-03-10T02:19:40.603Z,6.60
2023-03-10T02:22:10.711Z,7.03
2023-03-10T02:24:44.601Z,7.03
2023-03-10T02:27:17.282Z,7.13
2023-03-10T02:29:58.743Z,7.43
2023-03-10T02:32:28.477Z,5.93
2023-03-10T02:34:56.428Z,6.53
2023-03-10T02:37:26.051Z,6.40
2023-03-10T02:39:54.061Z,7.20
2023-03-10T02:42:24.153Z,7.97
2023-03-10T02:44:52.960Z,7.57
2023-03-10T02:47:21.102Z,7.07
2023-03-10T02:49:49.101Z,8.30
2023-03-10T02:52:27.125Z,6.87
2023-03-10T02:54:55.064Z,7.90
2023-03-10T02:57:24.370Z,7.93
2023-03-10T02:59:52.311Z,7.67
2023-03-10T03:02:20.219Z,7.87
2023-03-10T03:04:48.140Z,6.90
2023-03-10T03:07:16.048Z,7.73
2023-03-10T03:09:43.956Z,6.67
2023-03-10T03:12:11.932Z,7.17
2023-03-10T03:14:41.246Z,7.20
2023-03-10T03:17:09.263Z,7.10
2023-03-10T03:19:37.181Z,8.00
2023-03-10T03:22:05.182Z,7.50
2023-03-10T03:24:33.104Z,7.13
2023-03-10T03:27:01.045Z,7.60
2023-03-10T03:29:29.148Z,7.07
2023-03-10T03:31:58.632Z,6.33
2023-03-10T03:34:26.610Z,6.73
2023-03-10T03:36:54.512Z,7.27
2023-03-10T03:39:22.507Z,7.53
2023-03-10T03:41:53.346Z,8.17
2023-03-10T03:44:21.331Z,7.53
2023-03-10T03:46:49.287Z,6.73
2023-03-10T03:49:18.597Z,7.47
2023-03-10T03:51:46.576Z,6.97
2023-03-10T03:54:14.537Z,7.90
2023-03-10T03:56:42.500Z,7.10
2023-03-10T03:59:10.459Z,6.57
2023-03-10T04:01:38.400Z,7.07
2023-03-10T04:04:06.354Z,6.60
2023-03-10T04:06:35.645Z,7.23
2023-03-10T04:09:03.663Z,5.93
2023-03-10T04:11:31.934Z,6.37
2023-03-10T04:13:59.872Z,6.77
2023-03-10T04:16:27.779Z,6.93
2023-03-10T04:18:55.738Z,6.37
2023-03-10T04:21:23.706Z,7.20
2023-03-10T04:23:53.061Z,6.23
2023-03-10T04:26:22.035Z,6.80
2023-03-10T04:28:49.969Z,6.83
2023-03-10T04:31:19.161Z,5.80
2023-03-10T04:33:47.244Z,7.10
2023-03-10T04:36:15.390Z,6.77
2023-03-10T04:38:43.349Z,7.03
2023-03-10T04:41:12.666Z,6.47
2023-03-10T04:43:42.659Z,6.70
2023-03-10T04:46:11.337Z,5.97
2023-03-10T04:48:39.479Z,6.97
2023-03-10T04:51:09.166Z,5.77
2023-03-10T04:53:37.435Z,6.83
2023-03-10T04:56:07.413Z,6.30
2023-03-10T04:58:36.910Z,7.37
2023-03-10T05:01:11.056Z,6.10
2023-03-10T05:03:39.208Z,7.70
2023-03-10T05:06:13.363Z,6.80
2023-03-10T05:08:41.509Z,6.50
2023-03-10T05:11:10.225Z,6.90
2023-03-10T05:13:39.608Z,6.23
2023-03-10T05:16:13.859Z,7.53
2023-03-10T05:18:41.864Z,6.93
2023-03-10T05:21:09.826Z,6.33
2023-03-10T05:23:37.861Z,5.77
2023-03-10T05:26:06.479Z,6.13
2023-03-10T05:28:34.503Z,6.83
2023-03-10T05:31:09.764Z,6.67
2023-03-10T05:33:37.730Z,6.10
2023-03-10T05:36:07.816Z,5.93
2023-03-10T05:38:35.857Z,7.10
2023-03-10T05:41:04.661Z,6.67
2023-03-10T05:43:32.601Z,6.63
2023-03-10T05:46:01.320Z,6.07
2023-03-10T05:48:30.774Z,6.60
2023-03-10T05:51:02.589Z,7.47
2023-03-10T05:53:30.984Z,6.97
2023-03-10T05:55:59.043Z,6.73
2023-03-10T05:58:27.424Z,7.10
2023-03-10T06:00:55.299Z,6.20
2023-03-10T06:03:24.832Z,6.83
2023-03-10T06:05:54.247Z,7.00
2023-03-10T06:08:23.390Z,7.77
2023-03-10T06:10:51.428Z,7.67
2023-03-10T06:13:20.169Z,6.17
2023-03-10T06:15:51.088Z,5.90
2023-03-10T06:18:19.170Z,6.83
2023-03-10T06:20:47.938Z,6.40
2023-03-10T06:23:17.860Z,6.67
2023-03-10T06:25:46.318Z,7.70
2023-03-10T06:28:14.339Z,7.07
2023-03-10T06:30:42.257Z,6.57
2023-03-10T06:33:10.152Z,6.27
2023-03-10T06:35:38.101Z,8.40
2023-03-10T06:38:06.030Z,7.83
2023-03-10T06:40:35.328Z,7.23
2023-03-10T06:43:03.223Z,7.30
2023-03-10T06:45:31.181Z,7.40
2023-03-10T06:47:59.116Z,7.23
2023-03-10T06:50:27.075Z,6.57
2023-03-10T06:52:55.393Z,7.50
2023-03-10T06:55:23.333Z,7.27
2023-03-10T06:57:52.645Z,7.40
2023-03-10T07:00:21.244Z,7.63
2023-03-10T07:02:49.146Z,7.77
2023-03-10T07:05:17.043Z,6.47
2023-03-10T07:07:45.036Z,7.60
2023-03-10T07:10:13.518Z,7.80
2023-03-10T07:12:41.415Z,7.37
2023-03-10T07:15:11.927Z,6.63
2023-03-10T07:17:39.826Z,7.40
2023-03-10T07:20:09.428Z,7.67
2023-03-10T07:22:37.314Z,7.93
2023-03-10T07:25:06.213Z,7.53
2023-03-10T07:27:34.146Z,6.40
2023-03-10T07:30:02.120Z,6.80
2023-03-10T07:32:31.427Z,7.23
2023-03-10T07:34:59.564Z,7.03
2023-03-10T07:37:27.491Z,7.23
2023-03-10T07:39:55.431Z,6.87
2023-03-10T07:42:23.805Z,6.63
2023-03-10T07:44:51.874Z,8.47
2023-03-10T07:47:19.925Z,7.00
2023-03-10T07:49:49.464Z,7.27
2023-03-10T07:52:18.470Z,7.23
2023-03-10T07:54:46.651Z,7.13
2023-03-10T07:57:15.668Z,7.10
2023-03-10T07:59:44.074Z,6.70
2023-03-10T08:02:13.589Z,7.13
2023-03-10T08:04:41.811Z,7.17
2023-03-10T08:07:11.310Z,7.33
2023-03-10T08:09:39.289Z,7.27
2023-03-10T08:12:08.239Z,7.60
2023-03-10T08:14:36.585Z,6.90
2023-03-10T08:17:04.518Z,6.57
2023-03-10T08:19:32.408Z,6.90
2023-03-10T08:22:02.184Z,6.57
2023-03-10T08:24:31.587Z,6.30
2023-03-10T08:26:59.535Z,6.37
2023-03-10T08:29:27.643Z,7.00
2023-03-10T08:31:55.589Z,5.83
2023-03-10T08:34:23.598Z,7.00
2023-03-10T08:36:51.517Z,6.33
2023-03-10T08:39:19.751Z,6.70
2023-03-10T08:41:49.857Z,6.37
2023-03-10T08:44:19.038Z,6.30
2023-03-10T08:46:48.908Z,6.97
2023-03-10T08:49:19.589Z,6.50
2023-03-10T08:51:47.966Z,7.00
2023-03-10T08:54:19.625Z,6.60
2023-03-10T08:56:49.110Z,6.80
2023-03-10T08:59:17.058Z,6.80
2023-03-10T09:01:45.108Z,6.17
2023-03-10T09:04:13.260Z,6.40
2023-03-10T09:06:41.223Z,6.63
2023-03-10T09:09:10.267Z,6.83
2023-03-10T09:11:39.606Z,7.13
2023-03-10T09:14:10.146Z,6.97
2023-03-10T09:16:39.519Z,7.17
2023-03-10T09:19:07.549Z,6.50
2023-03-10T09:21:35.496Z,7.53
2023-03-10T09:24:03.923Z,7.10
2023-03-10T09:26:32.162Z,6.17
2023-03-10T09:29:00.092Z,7.10
2023-03-10T09:31:31.217Z,6.63
2023-03-10T09:33:59.191Z,6.80
2023-03-10T09:36:27.182Z,7.23
2023-03-10T09:38:55.212Z,6.63
2023-03-10T09:41:38.568Z,6.67
2023-03-10T09:44:17.736Z,7.37
2023-03-10T09:46:51.889Z,6.03
2023-03-10T09:49:24.604Z,6.97
2023-03-10T09:51:52.590Z,5.80
2023-03-10T09:54:33.507Z,6.30
2023-03-10T09:57:01.670Z,6.63
2023-03-10T09:59:32.705Z,6.17
2023-03-10T10:02:03.516Z,6.87
2023-03-10T10:04:34.228Z,6.17
2023-03-10T10:07:02.355Z,7.70
2023-03-10T10:09:34.908Z,7.03
2023-03-10T10:12:12.807Z,6.67
2023-03-10T10:14:48.106Z,7.00
2023-03-10T10:17:32.502Z,7.13
2023-03-10T10:20:06.005Z,7.10
2023-03-10T10:22:37.928Z,6.87
2023-03-10T10:25:17.835Z,6.87
2023-03-10T10:27:47.765Z,6.73
2023-03-10T10:30:30.588Z,7.13
2023-03-10T10:33:01.021Z,7.37
2023-03-10T10:35:30.275Z,6.37
2023-03-10T10:38:03.254Z,7.57
2023-03-10T10:40:34.494Z,7.40
2023-03-10T10:43:06.004Z,6.13
2023-03-10T10:45:36.808Z,6.80
2023-03-10T10:48:06.343Z,6.40
2023-03-10T10:50:35.499Z,7.77
2023-03-10T10:53:19.772Z,6.93
2023-03-10T10:55:48.600Z,6.63
2023-03-10T10:58:31.597Z,7.47
2023-03-10T11:01:01.126Z,7.43
2023-03-10T11:03:33.549Z,6.67
2023-03-10T11:06:03.094Z,7.07
2023-03-10T11:08:37.667Z,7.23
2023-03-10T11:11:18.761Z,7.77
2023-03-10T11:13:57.804Z,7.77
2023-03-10T11:16:30.018Z,6.30
2023-03-10T11:19:02.805Z,6.33
2023-03-10T11:21:32.385Z,7.53
2023-03-10T11:24:04.772Z,7.17
2023-03-10T11:26:49.569Z,7.07
2023-03-10T11:29:27.054Z,7.73
2023-03-10T11:31:58.570Z,7.93
2023-03-10T11:34:31.297Z,7.40
2023-03-10T11:37:06.441Z,7.73
2023-03-10T11:39:44.056Z,6.80
2023-03-10T11:42:17.993Z,6.97
2023-03-10T11:44:52.130Z,7.57
2023-03-10T11:47:25.293Z,6.83
2023-03-10T11:50:00.601Z,7.00
2023-03-10T11:52:29.568Z,7.17
2023-03-10T11:55:03.248Z,7.77
2023-03-10T11:57:35.392Z,7.77
2023-03-10T12:00:07.937Z,8.47
2023-03-10T12:02:39.804Z,8.33
2023-03-10T12:05:16.028Z,8.20
2023-03-10T12:07:46.468Z,8.37
2023-03-10T12:10:17.018Z,7.97
2023-03-10T12:12:47.081Z,7.63
2023-03-10T12:15:20.198Z,8.10
2023-03-10T12:17:49.369Z,8.63
2023-03-10T12:20:30.320Z,7.50
2023-03-10T12:22:59.321Z,7.83
2023-03-10T12:25:48.672Z,7.67
2023-03-10T12:28:27.739Z,8.13
2023-03-10T12:30:57.565Z,8.40
2023-03-10T12:33:53.092Z,7.67
2023-03-10T12:36:33.810Z,8.37
2023-03-10T12:39:02.400Z,8.57
2023-03-10T12:41:48.602Z,8.77
2023-03-10T12:44:31.906Z,7.80
2023-03-10T12:47:01.733Z,8.23
2023-03-10T12:49:34.594Z,8.50
2023-03-10T12:52:19.062Z,8.57
2023-03-10T12:54:55.625Z,13.00
2023-03-10T12:57:26.792Z,8.37
2023-03-10T13:00:00.478Z,9.77
2023-03-10T13:02:35.131Z,10.20
2023-03-10T13:05:06.235Z,9.80
2023-03-10T13:07:36.274Z,10.47
2023-03-10T13:10:04.452Z,11.13
2023-03-10T13:12:40.434Z,10.17
2023-03-10T13:15:20.520Z,9.77
2023-03-10T13:17:48.457Z,9.23
2023-03-10T13:20:17.483Z,10.50
2023-03-10T13:22:55.873Z,9.60
2023-03-10T13:25:24.262Z,10.40
2023-03-10T13:27:52.682Z,9.10
2023-03-10T13:30:22.653Z,10.13
2023-03-10T13:32:54.437Z,8.50
2023-03-10T13:35:26.536Z,8.10
2023-03-10T13:38:13.992Z,7.63
2023-03-10T13:40:44.054Z,8.30
2023-03-10T13:43:34.782Z,7.87
2023-03-10T13:46:03.518Z,6.00
2023-03-10T13:48:33.056Z,7.83
2023-03-10T13:51:09.423Z,7.90
2023-03-10T13:53:38.705Z,7.33
2023-03-10T13:56:21.486Z,7.43
2023-03-10T13:59:09.848Z,7.03
2023-03-10T14:01:41.152Z,7.17
2023-03-10T14:04:09.697Z,6.33
2023-03-10T14:06:38.009Z,7.20
2023-03-10T14:09:21.602Z,6.83
2023-03-10T14:11:50.627Z,6.30
2023-03-10T14:14:28.586Z,6.53
2023-03-10T14:16:58.194Z,6.77
2023-03-10T14:19:49.704Z,7.37
2023-03-10T14:22:32.503Z,7.60
2023-03-10T14:25:03.347Z,6.30
2023-03-10T14:27:34.887Z,6.63
2023-03-10T14:30:04.972Z,7.13
2023-03-10T14:32:33.142Z,6.20
2023-03-10T14:35:01.112Z,6.67
2023-03-10T14:37:29.040Z,6.77
2023-03-10T14:39:56.968Z,7.17
2023-03-10T14:42:30.740Z,5.60
2023-03-10T14:45:03.885Z,6.60
2023-03-10T14:47:31.991Z,5.87
2023-03-10T14:50:00.006Z,7.23
2023-03-10T14:52:27.905Z,5.27
2023-03-10T14:54:55.801Z,6.43
2023-03-10T14:57:24.111Z,5.27
2023-03-10T14:59:53.397Z,6.03
2023-03-10T15:02:23.364Z,6.20
2023-03-10T15:04:51.569Z,6.30
2023-03-10T15:07:19.611Z,5.83
2023-03-10T15:09:48.495Z,6.77
2023-03-10T15:12:18.283Z,5.70
2023-03-10T15:14:54.194Z,5.50
2023-03-10T15:17:22.415Z,6.13
2023-03-10T15:19:50.331Z,6.40
2023-03-10T15:22:18.795Z,6.50
2023-03-10T15:24:46.716Z,6.53
2023-03-10T15:27:14.936Z,6.07
2023-03-10T15:29:42.885Z,6.50
2023-03-10T15:32:12.188Z,5.63
2023-03-10T15:34:40.143Z,6.40
2023-03-10T15:37:08.702Z,6.83
2023-03-10T15:39:37.350Z,6.57
2023-03-10T15:42:08.703Z,4.87
2023-03-10T15:44:37.016Z,6.80
2023-03-10T15:47:05.717Z,5.13
2023-03-10T15:49:35.038Z,6.00
2023-03-10T15:52:03.239Z,6.23
2023-03-10T15:54:31.198Z,5.90
2023-03-10T15:56:59.093Z,6.43
2023-03-10T15:59:27.785Z,6.00
2023-03-10T16:01:55.783Z,4.97
2023-03-10T16:04:24.821Z,5.10
2023-03-10T16:06:54.520Z,5.67
2023-03-10T16:09:22.431Z,6.27
2023-03-10T16:11:50.331Z,6.03
2023-03-10T16:14:18.218Z,5.30
2023-03-10T16:16:46.120Z,6.67
2023-03-10T16:19:14.006Z,7.80
2023-03-10T16:21:41.939Z,7.33
2023-03-10T16:24:11.434Z,7.63
2023-03-10T16:26:39.451Z,7.23
2023-03-10T16:29:07.762Z,6.97
2023-03-10T16:31:35.725Z,6.60
2023-03-10T16:34:03.769Z,7.40
2023-03-10T16:36:33.231Z,6.73
2023-03-10T16:39:01.170Z,6.50
2023-03-10T16:41:30.824Z,6.83
2023-03-10T16:43:58.746Z,6.53
2023-03-10T16:46:30.231Z,6.00
2023-03-10T16:48:58.926Z,6.60
2023-03-10T16:51:28.789Z,6.57
2023-03-10T16:53:58.358Z,5.80
2023-03-10T16:56:27.756Z,6.30
2023-03-10T16:58:57.669Z,5.43
2023-03-10T17:01:26.153Z,7.20
2023-03-10T17:03:55.092Z,5.77
2023-03-10T17:06:25.265Z,6.03
2023-03-10T17:08:54.067Z,5.43
2023-03-10T17:11:23.638Z,5.50
2023-03-10T17:13:53.853Z,5.77
2023-03-10T17:16:28.181Z,5.83
2023-03-10T17:18:56.788Z,5.53
2023-03-10T17:21:26.809Z,6.13
2023-03-10T17:23:55.027Z,6.00
2023-03-10T17:26:23.230Z,6.13
2023-03-10T17:28:52.475Z,5.50
2023-03-10T17:31:27.068Z,5.60
2023-03-10T17:33:56.455Z,6.40
2023-03-10T17:36:33.427Z,5.57
2023-03-10T17:39:06.891Z,5.10
2023-03-10T17:41:36.607Z,5.47
2023-03-10T17:44:05.519Z,5.53
2023-03-10T17:46:35.655Z,6.47
2023-03-10T17:49:03.705Z,5.87
2023-03-10T17:51:32.294Z,6.07
2023-03-10T17:54:01.727Z,6.10
2023-03-10T17:56:29.889Z,6.10
2023-03-10T17:58:58.905Z,6.53
2023-03-10T18:01:28.446Z,5.80
2023-03-10T18:03:59.233Z,5.87
2023-03-10T18:06:28.976Z,5.67
2023-03-10T18:08:58.648Z,5.70
2023-03-10T18:11:27.943Z,5.90
2023-03-10T18:13:56.054Z,5.90
2023-03-10T18:16:25.459Z,5.97
2023-03-10T18:18:53.792Z,5.67
2023-03-10T18:21:23.537Z,6.50
2023-03-10T18:23:52.335Z,5.83
2023-03-10T18:26:22.487Z,5.93
2023-03-10T18:28:50.411Z,5.47
2023-03-10T18:31:19.647Z,5.13
2023-03-10T18:33:48.356Z,5.80
2023-03-10T18:36:17.873Z,5.93
2023-03-10T18:38:48.387Z,5.60
2023-03-10T18:41:19.585Z,6.30
2023-03-10T18:43:47.630Z,6.30
2023-03-10T18:46:15.696Z,5.67
2023-03-10T18:48:43.689Z,5.33
2023-03-10T18:51:12.559Z,5.90
2023-03-10T18:53:43.219Z,5.80
2023-03-10T18:56:12.698Z,5.27
2023-03-10T18:58:40.602Z,4.67
2023-03-10T19:01:11.507Z,5.57
2023-03-10T19:03:39.503Z,5.63
2023-03-10T19:06:07.925Z,6.13
2023-03-10T19:08:36.628Z,4.40
2023-03-10T19:11:05.104Z,5.47
2023-03-10T19:13:34.455Z,6.00
2023-03-10T19:16:06.072Z,6.03
2023-03-10T19:18:33.987Z,5.67
2023-03-10T19:21:02.228Z,5.60
2023-03-10T19:23:30.533Z,6.50
2023-03-10T19:25:58.584Z,4.77
2023-03-10T19:28:26.541Z,5.70
2023-03-10T19:30:56.084Z,5.83
2023-03-10T19:33:24.472Z,5.60
2023-03-10T19:36:01.077Z,5.40
2023-03-10T19:38:29.187Z,5.07
2023-03-10T19:40:57.083Z,5.77
2023-03-10T19:43:25.013Z,4.60
2023-03-10T19:45:52.957Z,4.47
2023-03-10T19:48:22.270Z,5.97
2023-03-10T19:50:54.096Z,5.13
2023-03-10T19:53:22.090Z,5.37
2023-03-10T19:55:52.859Z,5.60
2023-03-10T19:58:23.340Z,5.23
2023-03-10T20:00:53.457Z,4.60
2023-03-10T20:03:23.213Z,5.60
2023-03-10T20:05:51.265Z,5.47
2023-03-10T20:08:19.783Z,5.37
2023-03-10T20:10:48.009Z,5.20
2023-03-10T20:13:18.778Z,5.53
2023-03-10T20:15:46.662Z,5.30
2023-03-10T20:18:18.603Z,5.40
2023-03-10T20:20:47.979Z,4.77
2023-03-10T20:23:16.306Z,4.63
2023-03-10T20:25:45.616Z,4.47
2023-03-10T20:28:14.145Z,4.57
2023-03-10T20:30:42.747Z,4.20
2023-03-10T20:33:11.054Z,4.47
2023-03-10T20:35:39.213Z,4.53
2023-03-10T20:38:08.552Z,4.77
2023-03-10T20:40:38.425Z,5.20
2023-03-10T20:43:08.506Z,3.83
2023-03-10T20:45:36.986Z,4.53
2023-03-10T20:48:05.160Z,3.63
2023-03-10T20:50:33.293Z,4.00
2023-03-10T20:53:01.964Z,3.90
2023-03-10T20:55:32.836Z,4.27
2023-03-10T20:58:01.518Z,3.80
2023-03-10T21:00:30.767Z,4.10
2023-03-10T21:02:59.138Z,3.60
2023-03-10T21:05:28.551Z,4.20
2023-03-10T21:07:56.970Z,4.27
2023-03-10T21:10:26.582Z,3.73
2023-03-10T21:12:55.967Z,4.40
2023-03-10T21:15:25.470Z,3.67
2023-03-10T21:17:53.468Z,4.43
2023-03-10T21:20:23.455Z,4.10
2023-03-10T21:22:51.705Z,5.00
2023-03-10T21:25:21.353Z,3.77
2023-03-10T21:27:50.260Z,3.47
2023-03-10T21:30:20.238Z,3.90
2023-03-10T21:32:48.278Z,3.67
2023-03-10T21:35:16.339Z,3.70
2023-03-10T21:37:46.848Z,4.53
2023-03-10T21:40:18.095Z,3.70
2023-03-10T21:42:46.186Z,3.70
2023-03-10T21:45:17.707Z,3.93
2023-03-10T21:47:47.099Z,3.97
2023-03-10T21:50:16.242Z,3.50
2023-03-10T21:52:44.430Z,3.80
2023-03-10T21:55:17.734Z,4.50
2023-03-10T21:57:45.955Z,3.87
2023-03-10T22:00:14.806Z,4.27
2023-03-10T22:02:42.829Z,3.90
2023-03-10T22:05:13.366Z,4.13
2023-03-10T22:07:42.076Z,3.50
2023-03-10T22:10:12.852Z,3.67
2023-03-10T22:12:41.155Z,3.53
2023-03-10T22:15:10.295Z,3.70
2023-03-10T22:17:38.230Z,3.63
2023-03-10T22:20:08.581Z,3.40
2023-03-10T22:22:37.910Z,3.83
2023-03-10T22:25:07.215Z,3.77
2023-03-10T22:27:35.199Z,3.93
2023-03-10T22:30:03.132Z,3.93
2023-03-10T22:32:31.189Z,4.00
2023-03-10T22:34:59.440Z,2.70
2023-03-10T22:37:27.482Z,3.70
2023-03-10T22:39:56.810Z,3.43
2023-03-10T22:42:24.723Z,4.47
2023-03-10T22:44:52.728Z,3.80
2023-03-10T22:47:20.653Z,4.00
2023-03-10T22:49:48.578Z,4.40
2023-03-10T22:52:16.930Z,3.90
2023-03-10T22:54:44.848Z,3.87
2023-03-10T22:57:15.279Z,4.27
2023-03-10T22:59:43.283Z,3.40
2023-03-10T23:02:11.436Z,3.60
2023-03-10T23:04:39.391Z,3.07
2023-03-10T23:07:07.448Z,3.53
2023-03-10T23:09:35.335Z,3.37
2023-03-10T23:12:03.301Z,3.57
2023-03-10T23:14:32.675Z,3.50
2023-03-10T23:17:00.606Z,3.70
2023-03-10T23:19:28.500Z,4.00
2023-03-10T23:21:56.425Z,3.60
2023-03-10T23:24:24.338Z,3.90
2023-03-10T23:26:52.303Z,3.93
2023-03-10T23:29:20.209Z,4.17
2023-03-10T23:31:49.554Z,4.17
2023-03-10T23:34:17.563Z,4.20
2023-03-10T23:36:45.485Z,3.63
2023-03-10T23:39:13.644Z,5.00
2023-03-10T23:41:41.748Z,6.00
2023-03-10T23:44:09.666Z,4.73
2023-03-10T23:46:37.589Z,4.63
2023-03-10T23:49:06.896Z,6.73
2023-03-10T23:51:34.827Z,6.97
2023-03-10T23:54:02.734Z,4.57
2023-03-10T23:56:30.656Z,7.70
2023-03-10T23:58:58.942Z,8.30
